Terminal Aerodrome Forecast
Issued by NWS Grand Forks, ND

Home | Current Version | Previous Version | Graphics & Text | Print | Product List | Glossary On
Versions: 1 2 3 4 5 6 7 8 9 10 11 12 13 14
000
FTUS43 KFGF 181100
TAFFAR
TAF
KFAR 181120Z 1812/1912 32006KT P6SM OVC020
     FM181800 18011KT P6SM BKN025 BKN200
     FM190000 18011KT P6SM SCT020 BKN200=

USA.gov is the U.S. government's official web portal to all federal, state and local government web resources and services.